Seattle, WA

3:22 PM PDT on March 25, 2017 (GMT -0700)
Seattle | | Change Station

Elev 0 ft 47.61 °N, 122.34 °W | Updated 9 minutes ago

Mostly Cloudy
Mostly Cloudy
50.9 °F
Feels Like 50.9 °F
N
3.1
Wind Variable Wind from South
Gusts 8.1 mph

Today
High -- | Low -- °F
--% Chance of Precip.
Yesterday
High -- | Low -- °F
Precip. -- in
Pressure 30.10 in
Visibility 10.0 miles
Clouds Scattered Clouds 4700 ft
Mostly Cloudy 5500 ft
Mostly Cloudy 7000 ft
Dew Point 51 °F
Humidity 100%
Rainfall 0.00 in
Snow Depth Not available.
7:01 AM 7:29 PM
Waning Crescent, 6% visible
METAR KBFI 252153Z 19007KT 10SM SCT047 BKN055 BKN070 11/04 A3010 RMK AO2 SLP193 T01060044
Pressure 30.10 in
Visibility 10.0 miles
Clouds Scattered Clouds 4700 ft
Mostly Cloudy 5500 ft
Mostly Cloudy 7000 ft
Dew Point 51 °F
Humidity 100%
Rainfall 0.00 in
Snow Depth Not available.
7:01 AM 7:29 PM
Waning Crescent, 6% visible
METAR KBFI 252153Z 19007KT 10SM SCT047 BKN055 BKN070 11/04 A3010 RMK AO2 SLP193 T01060044

Get Severe Weather Alerts

Thanks for signing up!

Be on the lookout for a verification email in your inbox.

You'll start receiving the daily forecast at 8 AM.

×

10-Day Weather Forecast

Almanac

Astronomy

Mar. 25, 2017 Rise Set
Actual Time
Civil Twilight
Nautical Twilight
Astronomical Twilight
Moon
Length of Visible Light
Length of Day
Tomorrow will be .
, % of the Moon is Illuminated

Today's Extremes

State Highs State Lows

Community

WunderPhotos

Upload Photos

1,962,540 photos uploaded!

WunderBlog® & News

Nearby

Air Quality

  Air Quality AQ Index Pollutant
Not available.

Snow Depth

Station Depth Elevation

Earthquake Activity

City Distance Mag. Time & Date
Minimum magnitude displayed is 2.5.

Earthquake Activity

City Distance Mag. Time & Date
Minimum magnitude displayed is 2.5.

Coastal Water Temperatures

Place Temperature

Stations

Nearby Weather Stations

Station Location Temp. Windchill Dew Point Humidity Wind Precip. Elev Updated Type
                   

Watches & Warnings

There are currently no watches in effect.